Weather at Brampton (National P) Heliport [CLOSED]

Public forecast

Using degrees Celsius for public forecast. Weather courtesy of forecast.io.

Closest aviation weather report (METAR) to Brampton (National P) Heliport

Closest report is Toronto Lester B. Pearson International Airport, 8.6 nm (15.9 km) SSE.

2024/05/19 23:00 (retrieved 57 minutes ago)

CYYZ 192300Z 15008KT 15SM FEW050TCU FEW150 BKN200 21/14 A2993 RMK TCU1AC1CI3 TCU W-NE SLP136 DENSITY ALT 1400FT

Closest aviation forecast (TAF) to Brampton (National P) Heliport

Closest forecast is Toronto Lester B. Pearson International Airport, 8.6 nm (15.9 km) SSE.

2024/05/19 21:45 (retrieved 2 hours ago)

TAF CYYZ 192040Z 1921/2024 13010KT P6SM FEW040 FM192200 17008KT P6SM SCT050 TEMPO 1922/1924 P6SM VCTS BKN050CB FM200300 28005KT P6SM SCT050 BECMG 2003/2005 34005KT BECMG 2013/2015 16008KT RMK NXT FCST BY 200000Z